sensor_id;sensor_type;location;lat;lon;timestamp;P1;durP1;ratioP1;P2;durP2;ratioP2
13580;SDS011;6861;46.170;7.222;2024-02-16T00:00:18;8.13;;;6.15;;
13580;SDS011;6861;46.170;7.222;2024-02-16T00:02:46;8.45;;;6.60;;
13580;SDS011;6861;46.170;7.222;2024-02-16T00:05:15;8.63;;;6.47;;
13580;SDS011;6861;46.170;7.222;2024-02-16T00:07:43;11.75;;;6.28;;
13580;SDS011;6861;46.170;7.222;2024-02-16T00:10:13;11.60;;;6.15;;
13580;SDS011;6861;46.170;7.222;2024-02-16T00:12:44;9.90;;;6.03;;
13580;SDS011;6861;46.170;7.222;2024-02-16T00:15:13;10.68;;;6.13;;
13580;SDS011;6861;46.170;7.222;2024-02-16T00:17:41;8.80;;;6.28;;
13580;SDS011;6861;46.170;7.222;2024-02-16T00:20:10;8.68;;;6.45;;
13580;SDS011;6861;46.170;7.222;2024-02-16T00:22:39;10.32;;;7.70;;
13580;SDS011;6861;46.170;7.222;2024-02-16T00:25:08;7.03;;;5.97;;
13580;SDS011;6861;46.170;7.222;2024-02-16T00:27:38;8.63;;;6.15;;
13580;SDS011;6861;46.170;7.222;2024-02-16T00:30:07;10.32;;;5.75;;
13580;SDS011;6861;46.170;7.222;2024-02-16T00:32:37;8.32;;;6.03;;
13580;SDS011;6861;46.170;7.222;2024-02-16T00:35:05;9.93;;;5.88;;
13580;SDS011;6861;46.170;7.222;2024-02-16T00:37:34;6.30;;;5.00;;
13580;SDS011;6861;46.170;7.222;2024-02-16T00:40:02;8.70;;;5.45;;
13580;SDS011;6861;46.170;7.222;2024-02-16T00:42:32;9.68;;;5.63;;
13580;SDS011;6861;46.170;7.222;2024-02-16T00:45:03;7.65;;;5.63;;
13580;SDS011;6861;46.170;7.222;2024-02-16T00:47:32;7.00;;;5.38;;
13580;SDS011;6861;46.170;7.222;2024-02-16T00:50:00;5.30;;;4.00;;
13580;SDS011;6861;46.170;7.222;2024-02-16T00:52:30;6.82;;;3.75;;
13580;SDS011;6861;46.170;7.222;2024-02-16T00:54:58;5.72;;;2.60;;
13580;SDS011;6861;46.170;7.222;2024-02-16T00:57:26;3.55;;;2.35;;
13580;SDS011;6861;46.170;7.222;2024-02-16T00:59:55;3.83;;;2.15;;
13580;SDS011;6861;46.170;7.222;2024-02-16T01:02:25;7.95;;;5.40;;
13580;SDS011;6861;46.170;7.222;2024-02-16T01:04:55;13.65;;;6.88;;
13580;SDS011;6861;46.170;7.222;2024-02-16T01:07:29;8.82;;;6.68;;
13580;SDS011;6861;46.170;7.222;2024-02-16T01:09:59;9.93;;;6.43;;
13580;SDS011;6861;46.170;7.222;2024-02-16T01:12:30;8.77;;;6.70;;
13580;SDS011;6861;46.170;7.222;2024-02-16T01:14:59;9.68;;;5.78;;
13580;SDS011;6861;46.170;7.222;2024-02-16T01:17:31;7.72;;;5.18;;
13580;SDS011;6861;46.170;7.222;2024-02-16T01:20:00;7.88;;;5.40;;
13580;SDS011;6861;46.170;7.222;2024-02-16T01:22:32;11.25;;;5.95;;
13580;SDS011;6861;46.170;7.222;2024-02-16T01:25:05;10.20;;;4.53;;
13580;SDS011;6861;46.170;7.222;2024-02-16T01:27:41;7.30;;;4.55;;
13580;SDS011;6861;46.170;7.222;2024-02-16T01:30:12;8.18;;;5.03;;
13580;SDS011;6861;46.170;7.222;2024-02-16T01:32:46;8.65;;;5.50;;
13580;SDS011;6861;46.170;7.222;2024-02-16T01:35:18;6.13;;;4.72;;
13580;SDS011;6861;46.170;7.222;2024-02-16T01:37:50;9.95;;;5.60;;
13580;SDS011;6861;46.170;7.222;2024-02-16T01:40:22;7.68;;;6.00;;
13580;SDS011;6861;46.170;7.222;2024-02-16T01:42:53;12.52;;;5.88;;
13580;SDS011;6861;46.170;7.222;2024-02-16T01:45:24;10.30;;;5.55;;
13580;SDS011;6861;46.170;7.222;2024-02-16T01:47:58;11.20;;;6.45;;
13580;SDS011;6861;46.170;7.222;2024-02-16T01:50:28;9.30;;;5.05;;
13580;SDS011;6861;46.170;7.222;2024-02-16T01:53:04;8.70;;;5.57;;
13580;SDS011;6861;46.170;7.222;2024-02-16T01:55:34;9.05;;;6.03;;
13580;SDS011;6861;46.170;7.222;2024-02-16T01:58:05;8.48;;;4.95;;
13580;SDS011;6861;46.170;7.222;2024-02-16T02:00:39;6.53;;;4.05;;
13580;SDS011;6861;46.170;7.222;2024-02-16T02:03:14;11.85;;;5.53;;
13580;SDS011;6861;46.170;7.222;2024-02-16T02:05:46;10.20;;;5.57;;
13580;SDS011;6861;46.170;7.222;2024-02-16T02:08:16;9.38;;;6.13;;
13580;SDS011;6861;46.170;7.222;2024-02-16T02:10:45;8.73;;;5.82;;
13580;SDS011;6861;46.170;7.222;2024-02-16T02:13:14;8.73;;;5.70;;
13580;SDS011;6861;46.170;7.222;2024-02-16T02:15:45;7.25;;;5.03;;
13580;SDS011;6861;46.170;7.222;2024-02-16T02:18:18;9.80;;;5.63;;
13580;SDS011;6861;46.170;7.222;2024-02-16T02:20:47;10.40;;;6.32;;
13580;SDS011;6861;46.170;7.222;2024-02-16T02:23:21;8.98;;;5.80;;
13580;SDS011;6861;46.170;7.222;2024-02-16T02:25:54;11.85;;;6.00;;
13580;SDS011;6861;46.170;7.222;2024-02-16T02:28:25;11.32;;;6.68;;
13580;SDS011;6861;46.170;7.222;2024-02-16T02:30:57;9.20;;;6.43;;
13580;SDS011;6861;46.170;7.222;2024-02-16T02:33:29;10.02;;;6.82;;
13580;SDS011;6861;46.170;7.222;2024-02-16T02:36:00;9.65;;;5.97;;
13580;SDS011;6861;46.170;7.222;2024-02-16T02:38:32;12.10;;;6.70;;
13580;SDS011;6861;46.170;7.222;2024-02-16T02:41:00;11.50;;;7.72;;
13580;SDS011;6861;46.170;7.222;2024-02-16T02:43:34;9.80;;;7.00;;
13580;SDS011;6861;46.170;7.222;2024-02-16T02:46:05;10.25;;;6.30;;
13580;SDS011;6861;46.170;7.222;2024-02-16T02:48:34;9.48;;;6.15;;
13580;SDS011;6861;46.170;7.222;2024-02-16T02:51:08;11.30;;;6.60;;
13580;SDS011;6861;46.170;7.222;2024-02-16T02:53:46;8.15;;;5.88;;
13580;SDS011;6861;46.170;7.222;2024-02-16T02:56:15;9.38;;;6.03;;
13580;SDS011;6861;46.170;7.222;2024-02-16T02:58:45;8.65;;;6.10;;
13580;SDS011;6861;46.170;7.222;2024-02-16T03:01:18;8.60;;;6.32;;
13580;SDS011;6861;46.170;7.222;2024-02-16T03:03:50;8.65;;;6.53;;
13580;SDS011;6861;46.170;7.222;2024-02-16T03:06:19;8.80;;;6.30;;
13580;SDS011;6861;46.170;7.222;2024-02-16T03:08:58;10.30;;;6.50;;
13580;SDS011;6861;46.170;7.222;2024-02-16T03:11:30;7.63;;;5.72;;
13580;SDS011;6861;46.170;7.222;2024-02-16T03:14:03;11.40;;;5.70;;
13580;SDS011;6861;46.170;7.222;2024-02-16T03:16:34;8.20;;;5.75;;
13580;SDS011;6861;46.170;7.222;2024-02-16T03:19:04;9.98;;;6.00;;
13580;SDS011;6861;46.170;7.222;2024-02-16T03:21:38;8.23;;;5.85;;
13580;SDS011;6861;46.170;7.222;2024-02-16T03:24:12;8.38;;;5.50;;
13580;SDS011;6861;46.170;7.222;2024-02-16T03:26:44;10.65;;;6.78;;
13580;SDS011;6861;46.170;7.222;2024-02-16T03:29:15;7.75;;;5.80;;
13580;SDS011;6861;46.170;7.222;2024-02-16T03:31:46;8.45;;;5.35;;
13580;SDS011;6861;46.170;7.222;2024-02-16T03:34:17;8.95;;;5.68;;
13580;SDS011;6861;46.170;7.222;2024-02-16T03:36:48;10.18;;;5.22;;
13580;SDS011;6861;46.170;7.222;2024-02-16T03:39:22;11.43;;;5.95;;
13580;SDS011;6861;46.170;7.222;2024-02-16T03:41:53;11.52;;;5.82;;
13580;SDS011;6861;46.170;7.222;2024-02-16T03:44:25;10.30;;;6.07;;
13580;SDS011;6861;46.170;7.222;2024-02-16T03:46:55;8.95;;;5.22;;
13580;SDS011;6861;46.170;7.222;2024-02-16T03:49:25;9.30;;;5.50;;
13580;SDS011;6861;46.170;7.222;2024-02-16T03:51:57;10.40;;;5.72;;
13580;SDS011;6861;46.170;7.222;2024-02-16T03:54:31;8.50;;;5.78;;
13580;SDS011;6861;46.170;7.222;2024-02-16T03:57:08;10.00;;;6.13;;
13580;SDS011;6861;46.170;7.222;2024-02-16T03:59:40;10.05;;;5.90;;
13580;SDS011;6861;46.170;7.222;2024-02-16T04:02:12;6.70;;;5.13;;
13580;SDS011;6861;46.170;7.222;2024-02-16T04:04:42;11.18;;;6.18;;
13580;SDS011;6861;46.170;7.222;2024-02-16T04:07:13;9.95;;;5.30;;
13580;SDS011;6861;46.170;7.222;2024-02-16T04:09:44;7.65;;;5.28;;
13580;SDS011;6861;46.170;7.222;2024-02-16T04:12:16;8.73;;;5.93;;
13580;SDS011;6861;46.170;7.222;2024-02-16T04:14:49;10.80;;;5.55;;
13580;SDS011;6861;46.170;7.222;2024-02-16T04:17:22;8.50;;;5.35;;
13580;SDS011;6861;46.170;7.222;2024-02-16T04:19:54;10.02;;;5.43;;
13580;SDS011;6861;46.170;7.222;2024-02-16T04:22:24;8.85;;;5.68;;
13580;SDS011;6861;46.170;7.222;2024-02-16T04:24:54;9.50;;;5.72;;
13580;SDS011;6861;46.170;7.222;2024-02-16T04:27:23;9.27;;;5.95;;
13580;SDS011;6861;46.170;7.222;2024-02-16T04:29:52;9.07;;;5.90;;
13580;SDS011;6861;46.170;7.222;2024-02-16T04:32:21;10.60;;;5.40;;
13580;SDS011;6861;46.170;7.222;2024-02-16T04:34:54;7.55;;;5.38;;
13580;SDS011;6861;46.170;7.222;2024-02-16T04:37:23;7.15;;;5.13;;
13580;SDS011;6861;46.170;7.222;2024-02-16T04:39:51;8.40;;;5.95;;
13580;SDS011;6861;46.170;7.222;2024-02-16T04:42:21;10.07;;;5.57;;
13580;SDS011;6861;46.170;7.222;2024-02-16T04:44:50;13.00;;;5.70;;
13580;SDS011;6861;46.170;7.222;2024-02-16T04:47:18;9.82;;;6.22;;
13580;SDS011;6861;46.170;7.222;2024-02-16T04:49:46;11.75;;;5.75;;
13580;SDS011;6861;46.170;7.222;2024-02-16T04:52:15;7.90;;;5.35;;
13580;SDS011;6861;46.170;7.222;2024-02-16T04:54:43;10.52;;;5.28;;
13580;SDS011;6861;46.170;7.222;2024-02-16T04:57:11;9.55;;;5.18;;
13580;SDS011;6861;46.170;7.222;2024-02-16T04:59:41;7.75;;;4.82;;
13580;SDS011;6861;46.170;7.222;2024-02-16T05:02:09;9.82;;;5.45;;
13580;SDS011;6861;46.170;7.222;2024-02-16T05:04:37;9.07;;;5.20;;
13580;SDS011;6861;46.170;7.222;2024-02-16T05:07:06;6.93;;;5.45;;
13580;SDS011;6861;46.170;7.222;2024-02-16T05:09:34;9.63;;;5.82;;
13580;SDS011;6861;46.170;7.222;2024-02-16T05:12:03;9.55;;;5.45;;
13580;SDS011;6861;46.170;7.222;2024-02-16T05:14:31;8.52;;;5.53;;
13580;SDS011;6861;46.170;7.222;2024-02-16T05:17:01;8.30;;;5.00;;
13580;SDS011;6861;46.170;7.222;2024-02-16T05:19:32;9.70;;;4.93;;
13580;SDS011;6861;46.170;7.222;2024-02-16T05:22:03;7.65;;;4.82;;
13580;SDS011;6861;46.170;7.222;2024-02-16T05:24:31;8.43;;;4.55;;
13580;SDS011;6861;46.170;7.222;2024-02-16T05:27:00;7.35;;;5.10;;
13580;SDS011;6861;46.170;7.222;2024-02-16T05:29:28;12.57;;;5.72;;
13580;SDS011;6861;46.170;7.222;2024-02-16T05:31:56;7.65;;;4.85;;
13580;SDS011;6861;46.170;7.222;2024-02-16T05:34:26;6.82;;;4.60;;
13580;SDS011;6861;46.170;7.222;2024-02-16T05:36:58;8.27;;;4.43;;
13580;SDS011;6861;46.170;7.222;2024-02-16T05:39:28;7.68;;;5.10;;
13580;SDS011;6861;46.170;7.222;2024-02-16T05:41:58;6.13;;;4.60;;
13580;SDS011;6861;46.170;7.222;2024-02-16T05:44:27;10.45;;;5.25;;
13580;SDS011;6861;46.170;7.222;2024-02-16T05:46:55;7.20;;;4.55;;
13580;SDS011;6861;46.170;7.222;2024-02-16T05:49:23;6.50;;;4.30;;
13580;SDS011;6861;46.170;7.222;2024-02-16T05:51:53;6.35;;;4.38;;
13580;SDS011;6861;46.170;7.222;2024-02-16T05:54:41;11.18;;;4.47;;
13580;SDS011;6861;46.170;7.222;2024-02-16T05:57:10;9.70;;;4.13;;
13580;SDS011;6861;46.170;7.222;2024-02-16T05:59:39;7.80;;;4.22;;
13580;SDS011;6861;46.170;7.222;2024-02-16T06:02:08;5.03;;;4.07;;
13580;SDS011;6861;46.170;7.222;2024-02-16T06:04:39;8.55;;;3.60;;
13580;SDS011;6861;46.170;7.222;2024-02-16T06:07:08;5.93;;;3.63;;
13580;SDS011;6861;46.170;7.222;2024-02-16T06:09:37;7.90;;;4.00;;
13580;SDS011;6861;46.170;7.222;2024-02-16T06:12:06;7.10;;;3.97;;
13580;SDS011;6861;46.170;7.222;2024-02-16T06:14:36;5.07;;;3.63;;
13580;SDS011;6861;46.170;7.222;2024-02-16T06:17:05;9.25;;;4.00;;
13580;SDS011;6861;46.170;7.222;2024-02-16T06:19:34;7.72;;;3.85;;
13580;SDS011;6861;46.170;7.222;2024-02-16T06:22:05;8.40;;;4.15;;
13580;SDS011;6861;46.170;7.222;2024-02-16T06:24:34;7.82;;;4.10;;
13580;SDS011;6861;46.170;7.222;2024-02-16T06:27:04;7.63;;;4.15;;
13580;SDS011;6861;46.170;7.222;2024-02-16T06:29:32;8.35;;;4.43;;
13580;SDS011;6861;46.170;7.222;2024-02-16T06:32:00;6.78;;;4.43;;
13580;SDS011;6861;46.170;7.222;2024-02-16T06:34:29;9.55;;;6.32;;
13580;SDS011;6861;46.170;7.222;2024-02-16T06:36:58;7.93;;;4.65;;
13580;SDS011;6861;46.170;7.222;2024-02-16T06:39:28;6.82;;;4.10;;
13580;SDS011;6861;46.170;7.222;2024-02-16T06:41:58;8.73;;;4.90;;
13580;SDS011;6861;46.170;7.222;2024-02-16T06:44:27;8.27;;;5.40;;
13580;SDS011;6861;46.170;7.222;2024-02-16T06:46:55;13.10;;;9.32;;
13580;SDS011;6861;46.170;7.222;2024-02-16T06:49:23;7.60;;;4.40;;
13580;SDS011;6861;46.170;7.222;2024-02-16T06:51:52;5.57;;;3.78;;
13580;SDS011;6861;46.170;7.222;2024-02-16T06:54:22;7.95;;;3.80;;
13580;SDS011;6861;46.170;7.222;2024-02-16T06:56:53;8.70;;;4.00;;
13580;SDS011;6861;46.170;7.222;2024-02-16T06:59:21;6.95;;;4.00;;
13580;SDS011;6861;46.170;7.222;2024-02-16T07:01:49;6.97;;;3.90;;
13580;SDS011;6861;46.170;7.222;2024-02-16T07:04:18;7.75;;;3.50;;
13580;SDS011;6861;46.170;7.222;2024-02-16T07:06:46;6.05;;;3.55;;
13580;SDS011;6861;46.170;7.222;2024-02-16T07:09:14;7.45;;;3.78;;
13580;SDS011;6861;46.170;7.222;2024-02-16T07:11:42;5.93;;;3.60;;
13580;SDS011;6861;46.170;7.222;2024-02-16T07:14:18;7.00;;;3.58;;
13580;SDS011;6861;46.170;7.222;2024-02-16T07:16:47;7.65;;;3.55;;
13580;SDS011;6861;46.170;7.222;2024-02-16T07:19:15;15.90;;;5.35;;
13580;SDS011;6861;46.170;7.222;2024-02-16T07:21:45;12.85;;;5.97;;
13580;SDS011;6861;46.170;7.222;2024-02-16T07:24:13;11.77;;;5.40;;
13580;SDS011;6861;46.170;7.222;2024-02-16T07:26:42;12.60;;;5.45;;
13580;SDS011;6861;46.170;7.222;2024-02-16T07:29:10;11.63;;;6.20;;
13580;SDS011;6861;46.170;7.222;2024-02-16T07:31:45;9.90;;;5.80;;
13580;SDS011;6861;46.170;7.222;2024-02-16T07:34:13;7.97;;;4.80;;
13580;SDS011;6861;46.170;7.222;2024-02-16T07:36:41;8.73;;;4.75;;
13580;SDS011;6861;46.170;7.222;2024-02-16T07:39:10;5.45;;;3.70;;
13580;SDS011;6861;46.170;7.222;2024-02-16T07:41:39;8.50;;;4.28;;
13580;SDS011;6861;46.170;7.222;2024-02-16T07:44:07;8.20;;;4.13;;
13580;SDS011;6861;46.170;7.222;2024-02-16T07:46:39;7.15;;;3.33;;
13580;SDS011;6861;46.170;7.222;2024-02-16T07:49:09;5.68;;;2.75;;
13580;SDS011;6861;46.170;7.222;2024-02-16T07:51:39;9.60;;;3.17;;
13580;SDS011;6861;46.170;7.222;2024-02-16T07:54:07;19.83;;;10.10;;
13580;SDS011;6861;46.170;7.222;2024-02-16T07:56:36;18.17;;;9.20;;
13580;SDS011;6861;46.170;7.222;2024-02-16T07:59:04;13.93;;;6.70;;
13580;SDS011;6861;46.170;7.222;2024-02-16T08:01:33;9.45;;;5.22;;
13580;SDS011;6861;46.170;7.222;2024-02-16T08:04:01;13.02;;;7.53;;
13580;SDS011;6861;46.170;7.222;2024-02-16T08:06:33;15.98;;;8.27;;
13580;SDS011;6861;46.170;7.222;2024-02-16T08:09:02;12.65;;;6.80;;
13580;SDS011;6861;46.170;7.222;2024-02-16T08:11:33;11.40;;;6.43;;
13580;SDS011;6861;46.170;7.222;2024-02-16T08:14:01;12.05;;;5.97;;
13580;SDS011;6861;46.170;7.222;2024-02-16T08:16:29;11.07;;;5.82;;
13580;SDS011;6861;46.170;7.222;2024-02-16T08:18:58;10.88;;;5.95;;
13580;SDS011;6861;46.170;7.222;2024-02-16T08:21:26;14.95;;;6.80;;
13580;SDS011;6861;46.170;7.222;2024-02-16T08:23:56;12.50;;;6.63;;
13580;SDS011;6861;46.170;7.222;2024-02-16T08:26:24;11.23;;;6.60;;
13580;SDS011;6861;46.170;7.222;2024-02-16T08:28:53;9.70;;;6.03;;
13580;SDS011;6861;46.170;7.222;2024-02-16T08:31:21;11.75;;;7.00;;
13580;SDS011;6861;46.170;7.222;2024-02-16T08:33:50;11.30;;;6.47;;
13580;SDS011;6861;46.170;7.222;2024-02-16T08:36:18;11.20;;;6.45;;
13580;SDS011;6861;46.170;7.222;2024-02-16T08:38:48;12.27;;;6.93;;
13580;SDS011;6861;46.170;7.222;2024-02-16T08:41:17;11.38;;;5.00;;
13580;SDS011;6861;46.170;7.222;2024-02-16T08:43:46;8.30;;;4.53;;
13580;SDS011;6861;46.170;7.222;2024-02-16T08:46:14;11.70;;;5.22;;
13580;SDS011;6861;46.170;7.222;2024-02-16T08:48:44;8.45;;;3.92;;
13580;SDS011;6861;46.170;7.222;2024-02-16T08:51:12;7.25;;;3.90;;
13580;SDS011;6861;46.170;7.222;2024-02-16T08:53:41;4.97;;;3.30;;
13580;SDS011;6861;46.170;7.222;2024-02-16T08:56:09;6.28;;;3.35;;
13580;SDS011;6861;46.170;7.222;2024-02-16T08:58:39;11.45;;;5.93;;
13580;SDS011;6861;46.170;7.222;2024-02-16T09:01:07;11.85;;;6.88;;
13580;SDS011;6861;46.170;7.222;2024-02-16T09:03:36;14.90;;;7.18;;
13580;SDS011;6861;46.170;7.222;2024-02-16T09:06:07;17.25;;;7.65;;
13580;SDS011;6861;46.170;7.222;2024-02-16T09:08:35;44.28;;;20.48;;
13580;SDS011;6861;46.170;7.222;2024-02-16T09:11:04;43.03;;;19.33;;
13580;SDS011;6861;46.170;7.222;2024-02-16T09:13:33;40.83;;;15.43;;
13580;SDS011;6861;46.170;7.222;2024-02-16T09:16:08;31.15;;;12.07;;
13580;SDS011;6861;46.170;7.222;2024-02-16T09:18:36;28.00;;;12.00;;
13580;SDS011;6861;46.170;7.222;2024-02-16T09:21:06;24.65;;;10.27;;
13580;SDS011;6861;46.170;7.222;2024-02-16T09:23:35;18.75;;;8.82;;
13580;SDS011;6861;46.170;7.222;2024-02-16T09:26:04;21.38;;;9.85;;
13580;SDS011;6861;46.170;7.222;2024-02-16T09:28:32;57.35;;;31.20;;
13580;SDS011;6861;46.170;7.222;2024-02-16T09:31:01;42.67;;;20.85;;
13580;SDS011;6861;46.170;7.222;2024-02-16T09:33:31;19.50;;;10.55;;
13580;SDS011;6861;46.170;7.222;2024-02-16T09:36:00;21.52;;;9.02;;
13580;SDS011;6861;46.170;7.222;2024-02-16T09:38:28;20.13;;;9.68;;
13580;SDS011;6861;46.170;7.222;2024-02-16T09:40:57;20.52;;;9.30;;
13580;SDS011;6861;46.170;7.222;2024-02-16T09:43:26;17.70;;;9.23;;
13580;SDS011;6861;46.170;7.222;2024-02-16T09:45:56;15.40;;;8.75;;
13580;SDS011;6861;46.170;7.222;2024-02-16T09:48:26;13.73;;;9.23;;
13580;SDS011;6861;46.170;7.222;2024-02-16T09:50:57;19.73;;;10.02;;
13580;SDS011;6861;46.170;7.222;2024-02-16T09:53:27;22.90;;;11.95;;
13580;SDS011;6861;46.170;7.222;2024-02-16T09:55:56;19.77;;;10.10;;
13580;SDS011;6861;46.170;7.222;2024-02-16T09:58:25;17.52;;;8.98;;
13580;SDS011;6861;46.170;7.222;2024-02-16T10:00:54;14.55;;;7.63;;
13580;SDS011;6861;46.170;7.222;2024-02-16T10:03:24;14.55;;;7.88;;
13580;SDS011;6861;46.170;7.222;2024-02-16T10:06:05;15.63;;;9.02;;
13580;SDS011;6861;46.170;7.222;2024-02-16T10:08:35;13.85;;;7.75;;
13580;SDS011;6861;46.170;7.222;2024-02-16T10:11:14;10.90;;;6.05;;
13580;SDS011;6861;46.170;7.222;2024-02-16T10:13:54;9.65;;;5.43;;
13580;SDS011;6861;46.170;7.222;2024-02-16T10:16:24;11.02;;;5.82;;
13580;SDS011;6861;46.170;7.222;2024-02-16T10:18:54;7.88;;;4.72;;
13580;SDS011;6861;46.170;7.222;2024-02-16T10:21:26;10.38;;;4.78;;
13580;SDS011;6861;46.170;7.222;2024-02-16T10:23:57;14.93;;;5.05;;
13580;SDS011;6861;46.170;7.222;2024-02-16T10:26:28;8.85;;;4.20;;
13580;SDS011;6861;46.170;7.222;2024-02-16T10:28:56;5.82;;;3.38;;
13580;SDS011;6861;46.170;7.222;2024-02-16T10:31:25;5.25;;;3.20;;
13580;SDS011;6861;46.170;7.222;2024-02-16T10:33:58;7.35;;;3.10;;
13580;SDS011;6861;46.170;7.222;2024-02-16T10:36:30;8.25;;;4.03;;
13580;SDS011;6861;46.170;7.222;2024-02-16T10:39:00;7.22;;;3.40;;
13580;SDS011;6861;46.170;7.222;2024-02-16T10:41:33;6.82;;;3.15;;
13580;SDS011;6861;46.170;7.222;2024-02-16T10:44:03;4.15;;;2.60;;
13580;SDS011;6861;46.170;7.222;2024-02-16T10:46:33;8.35;;;3.65;;
13580;SDS011;6861;46.170;7.222;2024-02-16T10:49:02;4.43;;;3.00;;
13580;SDS011;6861;46.170;7.222;2024-02-16T10:51:36;3.83;;;2.85;;
13580;SDS011;6861;46.170;7.222;2024-02-16T10:54:07;5.47;;;2.88;;
13580;SDS011;6861;46.170;7.222;2024-02-16T10:56:37;6.25;;;2.85;;
13580;SDS011;6861;46.170;7.222;2024-02-16T10:59:08;7.10;;;3.20;;
13580;SDS011;6861;46.170;7.222;2024-02-16T11:01:38;5.78;;;2.88;;
13580;SDS011;6861;46.170;7.222;2024-02-16T11:04:07;4.35;;;2.30;;
13580;SDS011;6861;46.170;7.222;2024-02-16T11:06:48;4.25;;;2.00;;
13580;SDS011;6861;46.170;7.222;2024-02-16T11:09:23;3.15;;;2.03;;
13580;SDS011;6861;46.170;7.222;2024-02-16T11:11:54;4.45;;;2.30;;
13580;SDS011;6861;46.170;7.222;2024-02-16T11:14:23;3.28;;;2.20;;
13580;SDS011;6861;46.170;7.222;2024-02-16T11:16:53;4.20;;;2.10;;
13580;SDS011;6861;46.170;7.222;2024-02-16T11:19:22;3.72;;;1.98;;
13580;SDS011;6861;46.170;7.222;2024-02-16T11:21:58;7.05;;;2.10;;
13580;SDS011;6861;46.170;7.222;2024-02-16T11:24:34;5.97;;;2.10;;
13580;SDS011;6861;46.170;7.222;2024-02-16T11:27:03;4.00;;;2.33;;
13580;SDS011;6861;46.170;7.222;2024-02-16T11:29:33;4.90;;;2.50;;
13580;SDS011;6861;46.170;7.222;2024-02-16T11:32:03;4.80;;;2.35;;
13580;SDS011;6861;46.170;7.222;2024-02-16T11:34:32;5.70;;;2.47;;
13580;SDS011;6861;46.170;7.222;2024-02-16T11:37:03;5.22;;;2.00;;
13580;SDS011;6861;46.170;7.222;2024-02-16T11:39:31;2.85;;;2.08;;
13580;SDS011;6861;46.170;7.222;2024-02-16T11:42:03;3.40;;;1.88;;
13580;SDS011;6861;46.170;7.222;2024-02-16T11:44:33;4.22;;;2.20;;
13580;SDS011;6861;46.170;7.222;2024-02-16T11:47:03;4.65;;;1.95;;
13580;SDS011;6861;46.170;7.222;2024-02-16T11:49:33;3.53;;;1.95;;
13580;SDS011;6861;46.170;7.222;2024-02-16T11:52:04;5.20;;;2.67;;
13580;SDS011;6861;46.170;7.222;2024-02-16T11:54:32;2.67;;;2.05;;
13580;SDS011;6861;46.170;7.222;2024-02-16T11:57:03;3.08;;;2.10;;
13580;SDS011;6861;46.170;7.222;2024-02-16T11:59:32;5.93;;;2.60;;
13580;SDS011;6861;46.170;7.222;2024-02-16T12:02:01;3.47;;;2.63;;
13580;SDS011;6861;46.170;7.222;2024-02-16T12:04:29;3.38;;;2.38;;
13580;SDS011;6861;46.170;7.222;2024-02-16T12:07:04;4.65;;;2.70;;
13580;SDS011;6861;46.170;7.222;2024-02-16T12:09:32;6.55;;;2.90;;
13580;SDS011;6861;46.170;7.222;2024-02-16T12:12:02;5.18;;;2.70;;
13580;SDS011;6861;46.170;7.222;2024-02-16T12:14:32;4.20;;;2.50;;
13580;SDS011;6861;46.170;7.222;2024-02-16T12:17:04;4.22;;;2.53;;
13580;SDS011;6861;46.170;7.222;2024-02-16T12:19:35;6.18;;;2.60;;
13580;SDS011;6861;46.170;7.222;2024-02-16T12:22:06;4.68;;;2.58;;
13580;SDS011;6861;46.170;7.222;2024-02-16T12:24:34;4.53;;;2.50;;
13580;SDS011;6861;46.170;7.222;2024-02-16T12:27:03;3.75;;;2.45;;
13580;SDS011;6861;46.170;7.222;2024-02-16T12:29:31;5.95;;;2.55;;
13580;SDS011;6861;46.170;7.222;2024-02-16T12:32:00;4.88;;;2.63;;
13580;SDS011;6861;46.170;7.222;2024-02-16T12:34:28;4.72;;;2.50;;
13580;SDS011;6861;46.170;7.222;2024-02-16T12:36:57;7.10;;;2.65;;
13580;SDS011;6861;46.170;7.222;2024-02-16T12:39:26;5.53;;;2.83;;
13580;SDS011;6861;46.170;7.222;2024-02-16T12:41:55;4.43;;;2.70;;
13580;SDS011;6861;46.170;7.222;2024-02-16T12:44:24;4.90;;;2.50;;
13580;SDS011;6861;46.170;7.222;2024-02-16T12:46:52;5.65;;;2.80;;
13580;SDS011;6861;46.170;7.222;2024-02-16T12:49:20;6.53;;;2.55;;
13580;SDS011;6861;46.170;7.222;2024-02-16T12:51:49;4.07;;;2.13;;
13580;SDS011;6861;46.170;7.222;2024-02-16T12:54:18;6.40;;;2.20;;
13580;SDS011;6861;46.170;7.222;2024-02-16T12:56:48;5.45;;;2.20;;
13580;SDS011;6861;46.170;7.222;2024-02-16T12:59:16;5.93;;;2.47;;
13580;SDS011;6861;46.170;7.222;2024-02-16T13:01:45;6.63;;;2.50;;
13580;SDS011;6861;46.170;7.222;2024-02-16T13:04:13;3.13;;;2.40;;
13580;SDS011;6861;46.170;7.222;2024-02-16T13:06:48;4.78;;;2.53;;
13580;SDS011;6861;46.170;7.222;2024-02-16T13:09:19;3.78;;;2.10;;
13580;SDS011;6861;46.170;7.222;2024-02-16T13:11:49;4.38;;;2.20;;
13580;SDS011;6861;46.170;7.222;2024-02-16T13:14:21;4.07;;;2.40;;
13580;SDS011;6861;46.170;7.222;2024-02-16T13:16:50;3.05;;;2.35;;
13580;SDS011;6861;46.170;7.222;2024-02-16T13:19:18;6.30;;;2.72;;
13580;SDS011;6861;46.170;7.222;2024-02-16T13:21:46;7.40;;;2.00;;
13580;SDS011;6861;46.170;7.222;2024-02-16T13:24:15;5.43;;;2.30;;
13580;SDS011;6861;46.170;7.222;2024-02-16T13:26:43;4.85;;;2.00;;
13580;SDS011;6861;46.170;7.222;2024-02-16T13:29:13;4.85;;;2.33;;
13580;SDS011;6861;46.170;7.222;2024-02-16T13:31:41;3.45;;;1.90;;
13580;SDS011;6861;46.170;7.222;2024-02-16T13:34:10;4.80;;;2.05;;
13580;SDS011;6861;46.170;7.222;2024-02-16T13:36:38;4.57;;;2.10;;
13580;SDS011;6861;46.170;7.222;2024-02-16T13:39:08;5.57;;;2.05;;
13580;SDS011;6861;46.170;7.222;2024-02-16T13:41:36;7.38;;;2.20;;
13580;SDS011;6861;46.170;7.222;2024-02-16T13:44:04;6.95;;;2.20;;
13580;SDS011;6861;46.170;7.222;2024-02-16T13:46:34;3.13;;;2.10;;
13580;SDS011;6861;46.170;7.222;2024-02-16T13:49:03;9.85;;;2.17;;
13580;SDS011;6861;46.170;7.222;2024-02-16T13:51:31;2.20;;;1.75;;
13580;SDS011;6861;46.170;7.222;2024-02-16T13:53:59;4.63;;;2.13;;
13580;SDS011;6861;46.170;7.222;2024-02-16T13:56:28;3.13;;;1.90;;
13580;SDS011;6861;46.170;7.222;2024-02-16T13:58:56;4.45;;;1.90;;
13580;SDS011;6861;46.170;7.222;2024-02-16T14:01:24;4.35;;;1.98;;
13580;SDS011;6861;46.170;7.222;2024-02-16T14:03:54;5.32;;;1.85;;
13580;SDS011;6861;46.170;7.222;2024-02-16T14:06:23;2.78;;;1.70;;
13580;SDS011;6861;46.170;7.222;2024-02-16T14:08:51;3.33;;;1.92;;
13580;SDS011;6861;46.170;7.222;2024-02-16T14:11:19;4.22;;;1.63;;
13580;SDS011;6861;46.170;7.222;2024-02-16T14:13:48;3.55;;;1.80;;
13580;SDS011;6861;46.170;7.222;2024-02-16T14:16:17;2.10;;;1.65;;
13580;SDS011;6861;46.170;7.222;2024-02-16T14:18:45;3.55;;;1.90;;
13580;SDS011;6861;46.170;7.222;2024-02-16T14:21:18;4.45;;;2.25;;
13580;SDS011;6861;46.170;7.222;2024-02-16T14:23:48;4.05;;;2.17;;
13580;SDS011;6861;46.170;7.222;2024-02-16T14:26:17;2.58;;;1.90;;
13580;SDS011;6861;46.170;7.222;2024-02-16T14:28:46;3.35;;;1.77;;
13580;SDS011;6861;46.170;7.222;2024-02-16T14:31:15;8.70;;;2.30;;
13580;SDS011;6861;46.170;7.222;2024-02-16T14:33:46;5.43;;;1.73;;
13580;SDS011;6861;46.170;7.222;2024-02-16T14:36:17;4.70;;;2.13;;
13580;SDS011;6861;46.170;7.222;2024-02-16T14:38:45;2.67;;;1.83;;
13580;SDS011;6861;46.170;7.222;2024-02-16T14:41:17;5.05;;;1.88;;
13580;SDS011;6861;46.170;7.222;2024-02-16T14:43:46;5.88;;;1.65;;
13580;SDS011;6861;46.170;7.222;2024-02-16T14:46:14;6.45;;;2.00;;
13580;SDS011;6861;46.170;7.222;2024-02-16T14:48:42;2.83;;;1.70;;
13580;SDS011;6861;46.170;7.222;2024-02-16T14:51:11;5.90;;;2.55;;
13580;SDS011;6861;46.170;7.222;2024-02-16T14:53:41;4.38;;;1.77;;
13580;SDS011;6861;46.170;7.222;2024-02-16T14:56:09;4.32;;;1.60;;
13580;SDS011;6861;46.170;7.222;2024-02-16T14:58:37;3.60;;;1.63;;
13580;SDS011;6861;46.170;7.222;2024-02-16T15:01:06;5.20;;;1.55;;
13580;SDS011;6861;46.170;7.222;2024-02-16T15:03:36;5.53;;;1.88;;
13580;SDS011;6861;46.170;7.222;2024-02-16T15:06:04;4.30;;;1.90;;
13580;SDS011;6861;46.170;7.222;2024-02-16T15:08:34;3.13;;;1.75;;
13580;SDS011;6861;46.170;7.222;2024-02-16T15:11:04;2.70;;;1.45;;
13580;SDS011;6861;46.170;7.222;2024-02-16T15:13:32;3.97;;;1.75;;